createdAt,value
2019-05-07T00:00:44.595Z,6.20
2019-05-07T00:01:51.542Z,6.19
2019-05-07T00:02:52.900Z,6.15
2019-05-07T00:03:57.109Z,6.12
2019-05-07T00:05:02.705Z,6.08
2019-05-07T00:06:05.382Z,6.06
2019-05-07T00:07:09.616Z,6.05
2019-05-07T00:08:13.753Z,6.00
2019-05-07T00:09:17.927Z,5.96
2019-05-07T00:10:24.689Z,5.92
2019-05-07T00:11:26.343Z,5.92
2019-05-07T00:12:32.322Z,5.94
2019-05-07T00:13:34.725Z,5.98
2019-05-07T00:14:38.911Z,6.02
2019-05-07T00:15:43.120Z,6.00
2019-05-07T00:16:47.267Z,6.00
2019-05-07T00:17:52.268Z,5.99
2019-05-07T00:18:55.665Z,5.99
2019-05-07T00:20:02.170Z,5.96
2019-05-07T00:21:03.993Z,5.96
2019-05-07T00:22:08.278Z,5.96
2019-05-07T00:23:12.536Z,5.93
2019-05-07T00:24:16.618Z,5.91
2019-05-07T00:25:22.831Z,5.91
2019-05-07T00:26:24.985Z,5.90
2019-05-07T00:27:29.130Z,5.88
2019-05-07T00:28:33.366Z,5.89
2019-05-07T00:29:37.490Z,5.88
2019-05-07T00:30:42.520Z,5.88
2019-05-07T00:31:45.857Z,5.89
2019-05-07T00:32:50.067Z,5.87
2019-05-07T00:33:54.242Z,5.82
2019-05-07T00:34:58.373Z,5.77
2019-05-07T00:36:02.713Z,5.74
2019-05-07T00:37:07.201Z,5.74
2019-05-07T00:38:12.904Z,5.76
2019-05-07T00:39:15.019Z,5.74
2019-05-07T00:40:19.254Z,5.73
2019-05-07T00:41:23.540Z,5.69
2019-05-07T00:42:27.668Z,5.65
2019-05-07T00:43:32.299Z,5.62
2019-05-07T00:44:36.031Z,5.62
2019-05-07T00:45:42.120Z,5.59
2019-05-07T00:46:44.254Z,5.58
2019-05-07T00:47:48.571Z,5.59
2019-05-07T00:48:52.848Z,5.61
2019-05-07T00:49:56.986Z,5.64
2019-05-07T00:51:02.208Z,5.67
2019-05-07T00:52:05.234Z,5.68
2019-05-07T00:53:09.396Z,5.66
2019-05-07T00:54:13.562Z,5.63
2019-05-07T00:55:17.704Z,5.59
2019-05-07T00:56:22.391Z,5.57
2019-05-07T00:57:26.071Z,5.56
2019-05-07T00:58:32.109Z,5.53
2019-05-07T00:59:34.407Z,5.47
2019-05-07T01:00:38.679Z,5.41
2019-05-07T01:01:43.349Z,5.41
2019-05-07T01:02:46.924Z,5.41
2019-05-07T01:03:53.288Z,5.37
2019-05-07T01:04:55.332Z,5.35
2019-05-07T01:05:59.447Z,5.37
2019-05-07T01:07:03.584Z,5.38
2019-05-07T01:08:07.767Z,5.42
2019-05-07T01:09:12.431Z,5.48
2019-05-07T01:10:16.195Z,5.54
2019-05-07T01:11:22.480Z,5.57
2019-05-07T01:12:24.448Z,5.58
2019-05-07T01:13:28.579Z,5.60
2019-05-07T01:14:32.766Z,5.62
2019-05-07T01:15:36.959Z,5.60
2019-05-07T01:16:42.040Z,5.59
2019-05-07T01:17:45.257Z,5.59
2019-05-07T01:18:49.457Z,5.58
2019-05-07T01:19:53.666Z,5.59
2019-05-07T01:20:57.857Z,5.61
2019-05-07T01:22:03.231Z,5.62
2019-05-07T01:23:06.332Z,5.64
2019-05-07T01:24:12.320Z,5.65
2019-05-07T01:25:14.671Z,5.63
2019-05-07T01:26:18.858Z,5.63
2019-05-07T01:27:23.024Z,5.64
2019-05-07T01:28:27.156Z,5.64
2019-05-07T01:29:32.855Z,5.63
2019-05-07T01:30:35.494Z,5.62
2019-05-07T01:31:39.676Z,5.62
2019-05-07T01:32:43.836Z,5.60
2019-05-07T01:33:48.004Z,5.58
2019-05-07T01:34:52.545Z,5.57
2019-05-07T01:35:56.377Z,5.57
2019-05-07T01:37:02.616Z,5.56
2019-05-07T01:38:04.764Z,5.56
2019-05-07T01:39:08.876Z,5.54
2019-05-07T01:40:13.043Z,5.53
2019-05-07T01:41:17.192Z,5.51
2019-05-07T01:42:22.185Z,5.50
2019-05-07T01:43:25.543Z,5.48
2019-05-07T01:44:29.735Z,5.42
2019-05-07T01:45:45.809Z,5.39
2019-05-07T01:46:38.226Z,5.36
2019-05-07T01:47:42.596Z,5.32
2019-05-07T01:48:46.468Z,5.27
2019-05-07T01:49:52.404Z,5.25
2019-05-07T01:50:54.820Z,5.26
2019-05-07T01:51:59.026Z,5.27
2019-05-07T01:53:03.910Z,5.26
2019-05-07T01:54:07.365Z,5.21
2019-05-07T01:55:12.935Z,5.20
2019-05-07T01:56:15.800Z,5.22
2019-05-07T01:57:20.042Z,5.23
2019-05-07T01:58:24.128Z,5.24
2019-05-07T01:59:28.327Z,5.24
2019-05-07T02:00:32.696Z,5.24
2019-05-07T02:01:36.663Z,5.26
2019-05-07T02:02:42.570Z,5.28
2019-05-07T02:03:44.982Z,5.27
2019-05-07T02:04:49.169Z,5.24
2019-05-07T02:05:53.326Z,5.22
2019-05-07T02:06:57.481Z,5.22
2019-05-07T02:08:02.960Z,5.21
2019-05-07T02:09:05.702Z,5.19
2019-05-07T02:10:11.853Z,5.19
2019-05-07T02:11:14.098Z,5.21
2019-05-07T02:12:18.354Z,5.22
2019-05-07T02:13:22.451Z,5.21
2019-05-07T02:14:26.624Z,5.19
2019-05-07T02:15:32.274Z,5.18
2019-05-07T02:16:34.970Z,5.16
2019-05-07T02:17:39.170Z,5.11
2019-05-07T02:18:43.338Z,5.08
2019-05-07T02:19:47.450Z,5.08
2019-05-07T02:20:52.136Z,5.07
2019-05-07T02:21:55.743Z,5.06
2019-05-07T02:23:00.009Z,5.04
2019-05-07T02:24:04.130Z,5.06
2019-05-07T02:25:08.319Z,5.08
2019-05-07T02:26:13.356Z,5.09
2019-05-07T02:27:16.583Z,5.06
2019-05-07T02:28:22.268Z,5.03
2019-05-07T02:29:24.924Z,5.01
2019-05-07T02:30:29.093Z,4.97
2019-05-07T02:31:33.947Z,4.93
2019-05-07T02:32:37.562Z,4.91
2019-05-07T02:33:43.359Z,4.92
2019-05-07T02:34:45.854Z,4.91
2019-05-07T02:35:53.247Z,4.89
2019-05-07T02:36:54.219Z,4.89
2019-05-07T02:37:58.374Z,4.89
2019-05-07T02:39:03.768Z,4.92
2019-05-07T02:40:06.691Z,4.95
2019-05-07T02:41:13.977Z,4.97
2019-05-07T02:42:14.992Z,4.97
2019-05-07T02:43:19.177Z,4.96
2019-05-07T02:44:23.459Z,4.97
2019-05-07T02:45:27.518Z,4.98
2019-05-07T02:46:35.772Z,4.96
2019-05-07T02:47:35.962Z,4.93
2019-05-07T02:48:42.642Z,4.91
2019-05-07T02:49:44.177Z,4.92
2019-05-07T02:50:48.330Z,4.93
2019-05-07T02:51:53.163Z,4.95
2019-05-07T02:52:56.689Z,4.97
2019-05-07T02:54:03.674Z,4.98
2019-05-07T02:55:05.018Z,4.99
2019-05-07T02:56:09.191Z,4.98
2019-05-07T02:57:16.895Z,4.98
2019-05-07T02:58:17.445Z,4.99
2019-05-07T02:59:23.368Z,4.97
2019-05-07T03:00:25.711Z,4.96
2019-05-07T03:01:29.872Z,4.93
2019-05-07T03:02:34.089Z,4.88
2019-05-07T03:03:38.188Z,4.85
2019-05-07T03:04:43.625Z,4.85
2019-05-07T03:05:46.557Z,4.85
2019-05-07T03:06:54.034Z,4.84
2019-05-07T03:07:54.895Z,4.83
2019-05-07T03:08:59.024Z,4.82
2019-05-07T03:10:03.837Z,4.84
2019-05-07T03:11:07.370Z,4.84
2019-05-07T03:12:13.159Z,4.81
2019-05-07T03:13:15.689Z,4.78
2019-05-07T03:14:19.865Z,4.77
2019-05-07T03:15:24.390Z,4.76
2019-05-07T03:16:40.116Z,4.76
2019-05-07T03:17:33.378Z,4.77
2019-05-07T03:18:36.630Z,4.78
2019-05-07T03:19:43.044Z,4.78
2019-05-07T03:20:44.864Z,4.81
2019-05-07T03:21:49.018Z,4.83
2019-05-07T03:22:53.780Z,4.87
2019-05-07T03:23:57.343Z,4.90
2019-05-07T03:25:03.426Z,4.92
2019-05-07T03:26:05.643Z,4.93
2019-05-07T03:27:09.820Z,4.88
2019-05-07T03:28:13.964Z,4.82
2019-05-07T03:29:18.096Z,4.76
2019-05-07T03:30:26.038Z,4.70
2019-05-07T03:31:26.775Z,4.68
2019-05-07T03:32:36.881Z,4.62
2019-05-07T03:33:36.739Z,4.58
2019-05-07T03:34:38.976Z,4.57
2019-05-07T03:35:46.548Z,4.57
2019-05-07T03:36:48.778Z,4.54
2019-05-07T03:37:54.384Z,4.51
2019-05-07T03:38:55.500Z,4.54
2019-05-07T03:39:59.650Z,4.57
2019-05-07T03:41:04.006Z,4.61
2019-05-07T03:42:07.960Z,4.65
2019-05-07T03:43:13.846Z,4.70
2019-05-07T03:44:16.281Z,4.74
2019-05-07T03:45:23.090Z,4.75
2019-05-07T03:46:24.615Z,4.77
2019-05-07T03:47:28.800Z,4.74
2019-05-07T03:48:33.386Z,4.73
2019-05-07T03:49:37.094Z,4.75
2019-05-07T03:50:43.111Z,4.75
2019-05-07T03:51:45.521Z,4.69
2019-05-07T03:52:49.709Z,4.63
2019-05-07T03:53:53.886Z,4.59
2019-05-07T03:54:57.834Z,4.56
2019-05-07T03:56:04.098Z,4.56
2019-05-07T03:57:11.049Z,4.58
2019-05-07T03:58:14.221Z,4.62
2019-05-07T03:59:14.596Z,4.68
2019-05-07T04:00:18.780Z,4.74
2019-05-07T04:01:24.051Z,4.80
2019-05-07T04:02:27.097Z,4.86
2019-05-07T04:03:34.204Z,4.91
2019-05-07T04:04:35.374Z,4.93
2019-05-07T04:05:39.531Z,4.94
2019-05-07T04:06:43.705Z,4.95
2019-05-07T04:07:47.894Z,4.97
2019-05-07T04:08:53.228Z,4.99
2019-05-07T04:09:56.252Z,4.94
2019-05-07T04:11:03.467Z,4.89
2019-05-07T04:12:04.583Z,4.87
2019-05-07T04:13:08.765Z,4.86
2019-05-07T04:14:13.617Z,4.86
2019-05-07T04:15:19.552Z,4.88
2019-05-07T04:16:24.039Z,4.85
2019-05-07T04:17:27.144Z,4.83
2019-05-07T04:18:32.647Z,4.83
2019-05-07T04:19:33.682Z,4.85
2019-05-07T04:20:37.874Z,4.89
2019-05-07T04:21:43.485Z,4.92
2019-05-07T04:22:46.201Z,4.91
2019-05-07T04:23:50.355Z,4.91
2019-05-07T04:24:54.503Z,4.94
2019-05-07T04:25:58.678Z,5.00
2019-05-07T04:27:03.692Z,5.02
2019-05-07T04:28:07.098Z,5.01
2019-05-07T04:29:13.207Z,5.01
2019-05-07T04:30:15.430Z,5.05
2019-05-07T04:31:22.751Z,5.09
2019-05-07T04:32:23.757Z,5.11
2019-05-07T04:33:27.942Z,5.12
2019-05-07T04:34:33.693Z,5.15
2019-05-07T04:35:36.358Z,5.20
2019-05-07T04:36:43.261Z,5.22
2019-05-07T04:37:44.706Z,5.26
2019-05-07T04:38:48.752Z,5.29
2019-05-07T04:39:53.693Z,5.32
2019-05-07T04:40:57.186Z,5.35
2019-05-07T04:42:03.573Z,5.37
2019-05-07T04:43:05.500Z,5.40
2019-05-07T04:44:09.791Z,5.45
2019-05-07T04:45:13.955Z,5.50
2019-05-07T04:46:18.123Z,5.53
2019-05-07T04:47:37.017Z,5.54
2019-05-07T04:48:26.393Z,5.56
2019-05-07T04:49:33.170Z,5.55
2019-05-07T04:50:42.961Z,5.53
2019-05-07T04:51:38.977Z,5.53
2019-05-07T04:52:43.864Z,5.56
2019-05-07T04:53:47.351Z,5.61
2019-05-07T04:54:52.768Z,5.67
2019-05-07T04:55:55.819Z,5.73
2019-05-07T04:57:00.002Z,5.78
2019-05-07T04:58:08.590Z,5.84
2019-05-07T04:59:08.286Z,5.85
2019-05-07T05:00:13.486Z,5.87
2019-05-07T05:01:16.786Z,5.90
2019-05-07T05:02:23.051Z,5.94
2019-05-07T05:03:25.188Z,5.98
2019-05-07T05:04:34.006Z,6.01
2019-05-07T05:05:33.609Z,6.07
2019-05-07T05:06:37.699Z,6.13
2019-05-07T05:07:43.065Z,6.18
2019-05-07T05:08:46.136Z,6.23
2019-05-07T05:09:52.989Z,6.29
2019-05-07T05:10:54.455Z,6.33
2019-05-07T05:11:58.645Z,6.36
2019-05-07T05:13:03.369Z,6.38
2019-05-07T05:14:08.047Z,6.42
2019-05-07T05:15:12.629Z,6.45
2019-05-07T05:16:15.443Z,6.47
2019-05-07T05:17:19.610Z,6.50
2019-05-07T05:18:23.894Z,6.52
2019-05-07T05:19:28.019Z,6.55
2019-05-07T05:20:33.621Z,6.60
2019-05-07T05:21:36.407Z,6.66
2019-05-07T05:22:42.495Z,6.73
2019-05-07T05:23:44.701Z,6.79
2019-05-07T05:24:48.990Z,6.85
2019-05-07T05:25:53.142Z,6.90
2019-05-07T05:26:57.336Z,6.91
2019-05-07T05:28:02.098Z,6.93
2019-05-07T05:29:05.861Z,6.98
2019-05-07T05:30:09.987Z,7.03
2019-05-07T05:31:14.173Z,7.07
2019-05-07T05:32:18.497Z,7.12
2019-05-07T05:33:23.490Z,7.14
2019-05-07T05:34:26.858Z,7.22
2019-05-07T05:35:32.108Z,7.37
2019-05-07T05:36:35.334Z,7.66
2019-05-07T05:37:39.513Z,8.08
2019-05-07T05:38:43.728Z,8.65
2019-05-07T05:40:02.516Z,9.27
2019-05-07T05:40:52.357Z,9.89
2019-05-07T05:41:56.624Z,10.53
2019-05-07T05:43:01.923Z,11.09
2019-05-07T05:44:05.099Z,11.68
2019-05-07T05:45:09.479Z,12.26
2019-05-07T05:46:13.848Z,12.72
2019-05-07T05:47:18.161Z,12.97
2019-05-07T05:48:22.578Z,13.28
2019-05-07T05:49:26.698Z,13.54
2019-05-07T05:50:33.153Z,13.80
2019-05-07T05:51:35.380Z,14.00
2019-05-07T05:52:39.593Z,14.19
2019-05-07T05:53:43.852Z,14.31
2019-05-07T05:54:48.102Z,14.23
2019-05-07T05:55:52.855Z,14.12
2019-05-07T05:56:56.641Z,14.03
2019-05-07T05:58:02.679Z,13.91
2019-05-07T05:59:05.207Z,13.82
2019-05-07T06:00:09.474Z,13.64
2019-05-07T06:01:13.705Z,13.54
2019-05-07T06:02:18.060Z,13.35
2019-05-07T06:03:22.782Z,13.26
2019-05-07T06:04:26.433Z,13.22
2019-05-07T06:05:34.239Z,13.11
2019-05-07T06:06:34.983Z,12.90
2019-05-07T06:07:39.297Z,12.75
2019-05-07T06:08:43.569Z,12.67
2019-05-07T06:09:47.657Z,12.60
2019-05-07T06:10:52.008Z,12.55
2019-05-07T06:11:59.171Z,12.49
2019-05-07T06:13:02.523Z,12.42
2019-05-07T06:14:06.762Z,12.36
2019-05-07T06:15:12.651Z,12.31
2019-05-07T06:16:15.282Z,12.23
2019-05-07T06:17:19.505Z,12.09
2019-05-07T06:18:24.044Z,12.00
2019-05-07T06:19:28.000Z,11.94
2019-05-07T06:20:32.271Z,11.88
2019-05-07T06:21:36.634Z,11.76
2019-05-07T06:22:42.438Z,11.68
2019-05-07T06:23:45.062Z,11.59
2019-05-07T06:24:49.260Z,11.48
2019-05-07T06:25:53.504Z,11.45
2019-05-07T06:26:57.741Z,11.44
2019-05-07T06:28:02.039Z,11.43
2019-05-07T06:29:06.249Z,11.37
2019-05-07T06:30:12.090Z,11.33
2019-05-07T06:31:14.623Z,11.28
2019-05-07T06:32:18.922Z,11.25
2019-05-07T06:33:23.317Z,11.19
2019-05-07T06:34:27.539Z,11.11
2019-05-07T06:35:32.442Z,11.09
2019-05-07T06:36:35.984Z,11.10
2019-05-07T06:37:40.284Z,11.04
2019-05-07T06:38:44.517Z,11.02
2019-05-07T06:39:48.779Z,11.00
2019-05-07T06:40:53.022Z,10.98
2019-05-07T06:41:57.249Z,10.92
2019-05-07T06:43:03.158Z,10.92
2019-05-07T06:44:05.759Z,10.93
2019-05-07T06:45:12.247Z,10.91
2019-05-07T06:46:14.273Z,10.87
2019-05-07T06:47:18.537Z,10.84
2019-05-07T06:48:38.080Z,10.83
2019-05-07T06:49:27.136Z,10.85
2019-05-07T06:50:32.674Z,10.89
2019-05-07T06:51:35.545Z,10.92
2019-05-07T06:52:39.810Z,10.92
2019-05-07T06:53:44.131Z,10.92
2019-05-07T06:54:48.430Z,10.91
2019-05-07T06:55:52.740Z,10.93
2019-05-07T06:56:56.947Z,10.91
2019-05-07T06:58:02.606Z,10.91
2019-05-07T06:59:05.488Z,10.93
2019-05-07T07:00:11.912Z,10.96
2019-05-07T07:01:14.029Z,10.97
2019-05-07T07:02:18.216Z,10.94
2019-05-07T07:03:22.410Z,10.93
2019-05-07T07:04:26.764Z,10.92
2019-05-07T07:05:33.025Z,10.94
2019-05-07T07:06:35.241Z,10.94
2019-05-07T07:07:42.003Z,10.95
2019-05-07T07:08:43.889Z,10.98
2019-05-07T07:09:48.058Z,11.02
2019-05-07T07:10:52.358Z,11.06
2019-05-07T07:11:56.534Z,11.09
2019-05-07T07:13:02.414Z,11.13
2019-05-07T07:14:05.120Z,11.15
2019-05-07T07:15:09.346Z,11.19
2019-05-07T07:16:13.589Z,11.19
2019-05-07T07:17:17.928Z,11.15
2019-05-07T07:18:23.058Z,11.17
2019-05-07T07:19:26.383Z,11.21
2019-05-07T07:20:32.612Z,11.23
2019-05-07T07:21:34.998Z,11.24
2019-05-07T07:22:39.177Z,11.26
2019-05-07T07:23:43.532Z,11.31
2019-05-07T07:24:47.752Z,11.36
2019-05-07T07:25:52.304Z,11.42
2019-05-07T07:26:56.224Z,11.48
2019-05-07T07:28:02.618Z,11.53
2019-05-07T07:29:04.769Z,11.55
2019-05-07T07:30:09.020Z,11.58
2019-05-07T07:31:13.281Z,11.57
2019-05-07T07:32:17.592Z,11.61
2019-05-07T07:33:22.494Z,11.65
2019-05-07T07:34:26.163Z,11.65
2019-05-07T07:35:32.184Z,11.67
2019-05-07T07:36:34.723Z,11.73
2019-05-07T07:37:38.970Z,11.77
2019-05-07T07:38:43.122Z,11.86
2019-05-07T07:39:47.451Z,11.90
2019-05-07T07:40:52.763Z,11.91
2019-05-07T07:41:55.953Z,11.89
2019-05-07T07:43:03.080Z,11.83
2019-05-07T07:44:04.500Z,11.81
2019-05-07T07:45:08.766Z,11.81
2019-05-07T07:46:16.201Z,11.86
2019-05-07T07:47:17.283Z,11.93
2019-05-07T07:48:24.107Z,12.01
2019-05-07T07:49:25.950Z,12.11
2019-05-07T07:50:30.098Z,12.23
2019-05-07T07:51:41.455Z,12.27
2019-05-07T07:52:38.702Z,12.25
2019-05-07T07:53:43.121Z,12.23
2019-05-07T07:54:47.412Z,12.27
2019-05-07T07:55:52.925Z,12.28
2019-05-07T07:56:56.660Z,12.21
2019-05-07T07:58:02.535Z,12.15
2019-05-07T07:59:04.423Z,12.02
2019-05-07T08:00:08.755Z,11.91
2019-05-07T08:01:12.968Z,11.90
2019-05-07T08:02:17.138Z,11.94
2019-05-07T08:03:22.585Z,11.99
2019-05-07T08:04:25.832Z,12.01
2019-05-07T08:05:32.417Z,12.02
2019-05-07T08:06:34.326Z,12.03
2019-05-07T08:07:38.492Z,12.03
2019-05-07T08:08:42.797Z,12.05
2019-05-07T08:09:47.120Z,12.10
2019-05-07T08:10:51.998Z,12.17
2019-05-07T08:11:55.592Z,12.21
2019-05-07T08:13:01.877Z,12.21
2019-05-07T08:14:04.212Z,12.17
2019-05-07T08:15:17.351Z,12.11
2019-05-07T08:16:13.039Z,12.04
2019-05-07T08:17:17.050Z,12.00
2019-05-07T08:18:22.244Z,11.98
2019-05-07T08:19:25.676Z,12.01
2019-05-07T08:20:29.907Z,12.03
2019-05-07T08:21:34.253Z,12.07
2019-05-07T08:22:38.571Z,12.14
2019-05-07T08:23:42.810Z,12.20
2019-05-07T08:24:46.962Z,12.24
2019-05-07T08:25:52.472Z,12.23
2019-05-07T08:26:55.488Z,12.21
2019-05-07T08:27:59.844Z,12.19
2019-05-07T08:29:04.150Z,12.07
2019-05-07T08:30:08.402Z,12.10
2019-05-07T08:31:12.797Z,12.22
2019-05-07T08:32:16.957Z,12.40
2019-05-07T08:33:22.434Z,12.59
2019-05-07T08:34:25.529Z,12.73
2019-05-07T08:35:29.954Z,12.87
2019-05-07T08:36:34.092Z,12.93
2019-05-07T08:37:38.401Z,12.95
2019-05-07T08:38:42.782Z,12.98
2019-05-07T08:39:47.001Z,12.92
2019-05-07T08:40:52.077Z,12.80
2019-05-07T08:41:55.543Z,12.62
2019-05-07T08:42:59.904Z,12.52
2019-05-07T08:44:11.740Z,12.46
2019-05-07T08:45:08.412Z,12.44
2019-05-07T08:46:12.678Z,12.45
2019-05-07T08:47:16.971Z,12.48
2019-05-07T08:48:21.706Z,12.52
2019-05-07T08:49:35.873Z,12.56
2019-05-07T08:50:29.761Z,12.57
2019-05-07T08:51:33.991Z,12.59
2019-05-07T08:52:38.234Z,12.60
2019-05-07T08:53:42.606Z,12.64
2019-05-07T08:54:46.870Z,12.71
2019-05-07T08:55:52.623Z,12.82
2019-05-07T08:56:55.353Z,12.94
2019-05-07T08:58:02.071Z,13.02
2019-05-07T08:59:04.018Z,13.12
2019-05-07T09:00:08.257Z,13.21
2019-05-07T09:01:12.553Z,13.30
2019-05-07T09:02:16.860Z,13.34
2019-05-07T09:03:22.961Z,13.32
2019-05-07T09:04:25.422Z,13.31
2019-05-07T09:05:29.761Z,13.34
2019-05-07T09:06:34.100Z,13.35
2019-05-07T09:07:38.472Z,13.37
2019-05-07T09:08:43.639Z,13.42
2019-05-07T09:09:46.964Z,13.49
2019-05-07T09:10:52.509Z,13.56
2019-05-07T09:11:55.748Z,13.59
2019-05-07T09:12:59.925Z,13.56
2019-05-07T09:14:04.210Z,13.49
2019-05-07T09:15:08.433Z,13.37
2019-05-07T09:16:13.112Z,13.23
2019-05-07T09:17:16.982Z,13.09
2019-05-07T09:18:22.934Z,13.00
2019-05-07T09:19:25.544Z,12.97
2019-05-07T09:20:31.978Z,12.98
2019-05-07T09:21:34.172Z,13.01
2019-05-07T09:22:38.377Z,13.05
2019-05-07T09:23:42.661Z,13.06
2019-05-07T09:24:46.916Z,13.02
2019-05-07T09:25:52.267Z,12.99
2019-05-07T09:26:55.571Z,12.89
2019-05-07T09:27:59.799Z,12.79
2019-05-07T09:29:04.042Z,12.71
2019-05-07T09:30:08.349Z,12.63
2019-05-07T09:31:12.597Z,12.55
2019-05-07T09:32:16.972Z,12.42
2019-05-07T09:33:22.707Z,12.31
2019-05-07T09:34:25.406Z,12.19
2019-05-07T09:35:29.547Z,12.12
2019-05-07T09:36:36.959Z,12.06
2019-05-07T09:37:42.083Z,11.95
2019-05-07T09:38:56.028Z,11.93
2019-05-07T09:39:48.843Z,11.97
2019-05-07T09:40:53.174Z,12.02
2019-05-07T09:41:57.417Z,12.05
2019-05-07T09:43:02.548Z,12.15
2019-05-07T09:44:05.948Z,12.27
2019-05-07T09:45:12.074Z,12.40
2019-05-07T09:46:14.546Z,12.54
2019-05-07T09:47:18.797Z,12.67
2019-05-07T09:48:23.097Z,12.79
2019-05-07T09:49:27.387Z,12.86
2019-05-07T09:50:32.492Z,12.92
2019-05-07T09:51:35.838Z,12.91
2019-05-07T09:52:42.528Z,12.90
2019-05-07T09:53:44.679Z,12.83
2019-05-07T09:54:48.817Z,12.72
2019-05-07T09:55:53.056Z,12.67
2019-05-07T09:56:57.316Z,12.67
2019-05-07T09:58:02.020Z,12.67
2019-05-07T09:59:05.986Z,12.64
2019-05-07T10:00:12.142Z,12.61
2019-05-07T10:01:14.442Z,12.57
2019-05-07T10:02:18.727Z,12.55
2019-05-07T10:03:22.976Z,12.56
2019-05-07T10:04:27.150Z,12.54
2019-05-07T10:05:32.147Z,12.51
2019-05-07T10:06:35.756Z,12.49
2019-05-07T10:07:42.210Z,12.55
2019-05-07T10:08:44.258Z,12.63
2019-05-07T10:09:48.570Z,12.74
2019-05-07T10:10:53.270Z,12.87
2019-05-07T10:11:57.175Z,13.01
2019-05-07T10:13:01.880Z,13.14
2019-05-07T10:14:05.760Z,13.25
2019-05-07T10:15:12.061Z,13.34
2019-05-07T10:16:14.464Z,13.34
2019-05-07T10:17:18.769Z,13.36
2019-05-07T10:18:23.061Z,13.41
2019-05-07T10:19:27.274Z,13.49
2019-05-07T10:20:32.727Z,13.57
2019-05-07T10:21:35.866Z,13.67
2019-05-07T10:22:42.696Z,13.80
2019-05-07T10:23:44.567Z,13.90
2019-05-07T10:24:48.921Z,14.07
2019-05-07T10:25:53.216Z,14.21
2019-05-07T10:26:57.487Z,14.25
2019-05-07T10:28:02.021Z,14.21
2019-05-07T10:29:06.158Z,14.14
2019-05-07T10:30:12.679Z,13.98
2019-05-07T10:31:14.686Z,13.87
2019-05-07T10:32:18.977Z,13.80
2019-05-07T10:33:23.319Z,13.76
2019-05-07T10:34:27.619Z,13.77
2019-05-07T10:35:33.770Z,13.82
2019-05-07T10:36:36.232Z,13.83
2019-05-07T10:37:42.338Z,13.82
2019-05-07T10:38:44.773Z,13.75
2019-05-07T10:39:49.123Z,13.66
2019-05-07T10:40:53.398Z,13.64
2019-05-07T10:41:57.917Z,13.69
2019-05-07T10:43:01.924Z,13.76
2019-05-07T10:44:06.296Z,13.85
2019-05-07T10:45:10.527Z,13.94
2019-05-07T10:46:14.867Z,14.02
2019-05-07T10:47:19.157Z,14.11
2019-05-07T10:48:23.494Z,14.19
2019-05-07T10:49:27.785Z,14.25
2019-05-07T10:50:38.615Z,14.26
2019-05-07T10:51:36.306Z,14.22
2019-05-07T10:52:42.357Z,14.14
2019-05-07T10:53:45.181Z,14.06
2019-05-07T10:54:59.042Z,14.01
2019-05-07T10:55:53.748Z,14.03
2019-05-07T10:56:58.062Z,14.05
2019-05-07T10:58:03.012Z,14.03
2019-05-07T10:59:06.580Z,13.94
2019-05-07T11:00:12.447Z,13.88
2019-05-07T11:01:15.220Z,13.89
2019-05-07T11:02:19.500Z,13.95
2019-05-07T11:03:23.870Z,14.03
2019-05-07T11:04:39.232Z,14.11
2019-05-07T11:05:32.810Z,14.17
2019-05-07T11:06:36.794Z,14.23
2019-05-07T11:07:42.190Z,14.30
2019-05-07T11:08:45.354Z,14.35
2019-05-07T11:09:49.659Z,14.40
2019-05-07T11:10:53.988Z,14.48
2019-05-07T11:11:58.269Z,14.58
2019-05-07T11:13:02.685Z,14.70
2019-05-07T11:14:09.839Z,14.83
2019-05-07T11:15:13.332Z,14.94
2019-05-07T11:16:17.644Z,14.97
2019-05-07T11:17:22.397Z,14.99
2019-05-07T11:18:26.165Z,15.03
2019-05-07T11:19:32.327Z,15.04
2019-05-07T11:20:46.532Z,15.02
2019-05-07T11:21:39.146Z,14.97
2019-05-07T11:22:43.512Z,14.91
2019-05-07T11:23:47.864Z,14.91
2019-05-07T11:24:52.346Z,14.84
2019-05-07T11:25:56.460Z,14.74
2019-05-07T11:27:02.448Z,14.66
2019-05-07T11:28:04.989Z,14.65
2019-05-07T11:29:09.350Z,14.74
2019-05-07T11:30:13.638Z,14.92
2019-05-07T11:31:17.917Z,15.14
2019-05-07T11:32:22.307Z,15.34
2019-05-07T11:33:26.601Z,15.57
2019-05-07T11:34:32.810Z,15.77
2019-05-07T11:35:35.288Z,15.99
2019-05-07T11:36:39.566Z,16.19
2019-05-07T11:37:44.378Z,16.34
2019-05-07T11:38:48.288Z,16.33
2019-05-07T11:39:52.580Z,16.24
2019-05-07T11:40:57.020Z,16.13
2019-05-07T11:42:02.372Z,16.04
2019-05-07T11:43:05.549Z,15.93
2019-05-07T11:44:12.276Z,15.80
2019-05-07T11:45:14.181Z,15.68
2019-05-07T11:46:18.531Z,15.57
2019-05-07T11:47:22.808Z,15.37
2019-05-07T11:48:27.060Z,15.22
2019-05-07T11:49:32.781Z,15.08
2019-05-07T11:50:35.730Z,14.95
2019-05-07T11:51:39.984Z,14.81
2019-05-07T11:52:44.275Z,14.65
2019-05-07T11:53:48.557Z,14.52
2019-05-07T11:54:52.930Z,14.44
2019-05-07T11:55:57.165Z,14.38
2019-05-07T11:57:02.682Z,14.34
2019-05-07T11:58:05.831Z,14.32
2019-05-07T11:59:10.129Z,14.28
2019-05-07T12:00:14.386Z,14.23
2019-05-07T12:01:18.842Z,14.20
2019-05-07T12:02:23.039Z,14.19
2019-05-07T12:03:27.340Z,14.28
2019-05-07T12:04:32.064Z,14.42
2019-05-07T12:05:35.892Z,14.56
2019-05-07T12:06:40.203Z,14.64
2019-05-07T12:07:44.500Z,14.61
2019-05-07T12:08:51.942Z,14.53
2019-05-07T12:09:53.159Z,14.42
2019-05-07T12:10:57.483Z,14.21
2019-05-07T12:12:02.443Z,14.02
2019-05-07T12:13:06.040Z,13.85
2019-05-07T12:14:12.268Z,13.68
2019-05-07T12:15:14.637Z,13.62
2019-05-07T12:16:18.901Z,13.61
2019-05-07T12:17:23.141Z,13.68
2019-05-07T12:18:27.448Z,13.91
2019-05-07T12:19:33.037Z,14.21
2019-05-07T12:20:36.111Z,14.39
2019-05-07T12:21:42.171Z,14.46
2019-05-07T12:22:44.747Z,14.56
2019-05-07T12:23:49.122Z,14.67
2019-05-07T12:24:53.367Z,14.80
2019-05-07T12:25:57.666Z,14.91
2019-05-07T12:27:02.647Z,15.06
2019-05-07T12:28:06.308Z,15.13
2019-05-07T12:29:11.843Z,15.15
2019-05-07T12:30:14.873Z,15.11
2019-05-07T12:31:19.305Z,15.17
2019-05-07T12:32:23.566Z,15.28
2019-05-07T12:33:27.842Z,15.32
2019-05-07T12:34:32.154Z,15.43
2019-05-07T12:35:36.533Z,15.51
2019-05-07T12:36:40.798Z,15.51
2019-05-07T12:37:47.872Z,15.49
2019-05-07T12:38:49.445Z,15.43
2019-05-07T12:39:53.750Z,15.36
2019-05-07T12:40:58.139Z,15.20
2019-05-07T12:42:02.407Z,15.06
2019-05-07T12:43:06.671Z,15.02
2019-05-07T12:44:13.026Z,15.01
2019-05-07T12:45:15.292Z,14.96
2019-05-07T12:46:19.544Z,14.90
2019-05-07T12:47:23.875Z,14.84
2019-05-07T12:48:28.253Z,14.75
2019-05-07T12:49:32.609Z,14.67
2019-05-07T12:50:36.875Z,14.61
2019-05-07T12:51:42.697Z,14.59
2019-05-07T12:52:45.398Z,14.55
2019-05-07T12:53:49.815Z,14.52
2019-05-07T12:54:54.049Z,14.49
2019-05-07T12:55:58.333Z,14.46
2019-05-07T12:57:02.738Z,14.42
2019-05-07T12:58:06.981Z,14.42
2019-05-07T12:59:12.843Z,14.56
2019-05-07T13:00:15.642Z,14.80
2019-05-07T13:01:21.822Z,15.07
2019-05-07T13:02:37.074Z,15.31
2019-05-07T13:03:28.566Z,15.47
2019-05-07T13:04:32.867Z,15.64
2019-05-07T13:05:37.187Z,15.82
2019-05-07T13:06:41.515Z,15.96
2019-05-07T13:07:45.815Z,16.01
2019-05-07T13:08:52.075Z,15.97
2019-05-07T13:09:54.454Z,15.85
2019-05-07T13:10:58.817Z,15.72
2019-05-07T13:12:03.164Z,15.59
2019-05-07T13:13:07.472Z,15.47
2019-05-07T13:14:12.603Z,15.35
2019-05-07T13:15:25.010Z,15.24
2019-05-07T13:16:22.104Z,15.17
2019-05-07T13:17:24.709Z,15.12
2019-05-07T13:18:29.057Z,15.13
2019-05-07T13:19:33.287Z,15.18
2019-05-07T13:20:37.588Z,15.22
2019-05-07T13:21:47.443Z,15.24
2019-05-07T13:22:46.177Z,15.27
2019-05-07T13:23:52.084Z,15.30
2019-05-07T13:24:54.841Z,15.32
2019-05-07T13:25:59.141Z,15.33
2019-05-07T13:27:03.427Z,15.33
2019-05-07T13:28:07.743Z,15.32
2019-05-07T13:29:12.781Z,15.27
2019-05-07T13:30:16.311Z,15.23
2019-05-07T13:31:22.698Z,15.19
2019-05-07T13:32:24.974Z,15.15
2019-05-07T13:33:29.355Z,15.13
2019-05-07T13:34:34.301Z,15.11
2019-05-07T13:35:38.032Z,15.08
2019-05-07T13:36:42.258Z,14.99
2019-05-07T13:37:46.624Z,14.87
2019-05-07T13:38:51.893Z,14.75
2019-05-07T13:39:55.225Z,14.66
2019-05-07T13:40:59.484Z,14.66
2019-05-07T13:42:03.830Z,14.72
2019-05-07T13:43:08.048Z,14.80
2019-05-07T13:44:12.522Z,14.90
2019-05-07T13:45:16.681Z,15.00
2019-05-07T13:46:22.052Z,15.09
2019-05-07T13:47:25.290Z,15.14
2019-05-07T13:48:31.579Z,15.20
2019-05-07T13:49:33.971Z,15.23
2019-05-07T13:50:38.314Z,15.26
2019-05-07T13:51:42.653Z,15.21
2019-05-07T13:52:46.925Z,15.13
2019-05-07T13:53:52.848Z,15.03
2019-05-07T13:54:55.704Z,14.94
2019-05-07T13:56:02.194Z,14.81
2019-05-07T13:57:04.224Z,14.73
2019-05-07T13:58:08.561Z,14.71